EZY95YJ EGKK-LGMK
Flight info
| Callsign | EZY95YJ |
|---|---|
| Flight time | N/A |
| Altitude | 37000 |
| Route | ODVIK Y311 DVR UL9 KONAN DCT KOK DCT RITAX DCT KRH DCT UTABA DCT BEMKI DCT ELMEM DCT DIRAB DCT VESAL DCT PEVAL DCT SAL DCT UVODI DCT PINDO DCT SKP UN137 AGAPU |
| Aircraft | A320/M-SDE2E3FGHIJ1RWXYZ/LB1 |
Departure
| Time | 2026-05-07 19:15 |
|---|---|
| Airport | London Gatwick Airport (EGKK) |
Arrival
| Time | N/A |
|---|---|
| Airport | Mykonos Island National Airport (LGMK) |
| Time | Latitude | Longitude | Altitude | Speed | Heading |
|---|---|---|---|---|---|
| 2026-05-07 18:38 | 51.15652 | -0.17793 | 204 ft | 0 kts | 167° |
| 2026-05-07 19:01 | 51.15670 | -0.17799 | 214 ft | 4 kts | 174° |
| 2026-05-07 19:02 | 51.15688 | -0.17800 | 211 ft | 4 kts | 185° |
| 2026-05-07 19:02 | 51.15713 | -0.17791 | 216 ft | 4 kts | 216° |
| 2026-05-07 19:02 | 51.15726 | -0.17767 | 212 ft | 1 kts | 258° |
| 2026-05-07 19:02 | 51.15726 | -0.17761 | 210 ft | 0 kts | 258° |
| 2026-05-07 19:05 | 51.15726 | -0.17766 | 211 ft | 2 kts | 258° |
| 2026-05-07 19:05 | 51.15720 | -0.17810 | 209 ft | 6 kts | 258° |
| 2026-05-07 19:06 | 51.15708 | -0.17897 | 204 ft | 10 kts | 257° |
| 2026-05-07 19:06 | 51.15664 | -0.18195 | 208 ft | 16 kts | 258° |
| 2026-05-07 19:06 | 51.15641 | -0.18374 | 204 ft | 17 kts | 258° |
| 2026-05-07 19:07 | 51.15615 | -0.18563 | 210 ft | 18 kts | 257° |
| 2026-05-07 19:07 | 51.15590 | -0.18737 | 215 ft | 12 kts | 254° |
| 2026-05-07 19:07 | 51.15534 | -0.18817 | 207 ft | 12 kts | 181° |
| 2026-05-07 19:07 | 51.15450 | -0.18791 | 210 ft | 13 kts | 168° |
| 2026-05-07 19:08 | 51.15360 | -0.18761 | 204 ft | 14 kts | 167° |
| 2026-05-07 19:08 | 51.15265 | -0.18728 | 214 ft | 14 kts | 168° |
| 2026-05-07 19:08 | 51.15197 | -0.18704 | 214 ft | 3 kts | 167° |
| 2026-05-07 19:08 | 51.15178 | -0.18699 | 204 ft | 4 kts | 176° |
| 2026-05-07 19:09 | 51.15134 | -0.18733 | 210 ft | 11 kts | 232° |
| 2026-05-07 19:09 | 51.15110 | -0.18884 | 209 ft | 17 kts | 258° |
| 2026-05-07 19:09 | 51.15082 | -0.19082 | 214 ft | 18 kts | 256° |
| 2026-05-07 19:09 | 51.15056 | -0.19256 | 214 ft | 14 kts | 257° |
| 2026-05-07 19:10 | 51.15037 | -0.19395 | 213 ft | 12 kts | 257° |
| 2026-05-07 19:10 | 51.15021 | -0.19512 | 204 ft | 10 kts | 257° |
| 2026-05-07 19:10 | 51.15007 | -0.19614 | 207 ft | 9 kts | 258° |
| 2026-05-07 19:10 | 51.14996 | -0.19698 | 213 ft | 7 kts | 258° |
| 2026-05-07 19:11 | 51.14980 | -0.19817 | 211 ft | 16 kts | 258° |
| 2026-05-07 19:11 | 51.14951 | -0.20037 | 205 ft | 23 kts | 257° |
| 2026-05-07 19:11 | 51.14911 | -0.20286 | 207 ft | 24 kts | 258° |
| 2026-05-07 19:11 | 51.14877 | -0.20548 | 206 ft | 24 kts | 259° |
| 2026-05-07 19:12 | 51.14844 | -0.20819 | 203 ft | 25 kts | 257° |
| 2026-05-07 19:12 | 51.14803 | -0.21094 | 207 ft | 26 kts | 253° |
| 2026-05-07 19:12 | 51.14764 | -0.21317 | 208 ft | 10 kts | 256° |
| 2026-05-07 19:12 | 51.14731 | -0.21394 | 210 ft | 8 kts | 200° |
| 2026-05-07 19:13 | 51.14672 | -0.21369 | 208 ft | 11 kts | 146° |
| 2026-05-07 19:13 | 51.14637 | -0.21338 | 206 ft | 0 kts | 158° |
| 2026-05-07 19:13 | 51.14635 | -0.21337 | 206 ft | 2 kts | 158° |
| 2026-05-07 19:13 | 51.14586 | -0.21310 | 212 ft | 10 kts | 162° |
| 2026-05-07 19:14 | 51.14525 | -0.21231 | 209 ft | 16 kts | 114° |
| 2026-05-07 19:14 | 51.14525 | -0.21145 | 202 ft | 0 kts | 77° |
| 2026-05-07 19:14 | 51.14525 | -0.21144 | 202 ft | 2 kts | 77° |
| 2026-05-07 19:14 | 51.14575 | -0.20772 | 207 ft | 70 kts | 78° |
| 2026-05-07 19:15 | 51.14725 | -0.19686 | 208 ft | 128 kts | 78° |
| 2026-05-07 19:15 | 51.14948 | -0.18060 | 293 ft | 165 kts | 77° |
| 2026-05-07 19:15 | 51.15205 | -0.16273 | 945 ft | 165 kts | 78° |
| 2026-05-07 19:15 | 51.15454 | -0.14476 | 1595 ft | 169 kts | 78° |
| 2026-05-07 19:16 | 51.15723 | -0.12548 | 1959 ft | 187 kts | 77° |
| 2026-05-07 19:16 | 51.15997 | -0.10755 | 2323 ft | 200 kts | 76° |
| 2026-05-07 19:16 | 51.16322 | -0.08478 | 2619 ft | 224 kts | 79° |
| 2026-05-07 19:16 | 51.16660 | -0.05921 | 3017 ft | 246 kts | 79° |
| 2026-05-07 19:17 | 51.16917 | -0.03181 | 3747 ft | 254 kts | 90° |
| 2026-05-07 19:17 | 51.16855 | -0.00344 | 4622 ft | 258 kts | 92° |
| 2026-05-07 19:17 | 51.16793 | 0.02533 | 5364 ft | 262 kts | 92° |
| 2026-05-07 19:17 | 51.16735 | 0.05482 | 5785 ft | 268 kts | 92° |
| 2026-05-07 19:18 | 51.16677 | 0.08448 | 5875 ft | 268 kts | 92° |
| 2026-05-07 19:18 | 51.16621 | 0.11407 | 5879 ft | 267 kts | 92° |
| 2026-05-07 19:18 | 51.16574 | 0.13903 | 5868 ft | 267 kts | 92° |
| 2026-05-07 19:18 | 51.16533 | 0.16525 | 5854 ft | 267 kts | 91° |
| 2026-05-07 19:19 | 51.16527 | 0.19482 | 5839 ft | 267 kts | 90° |
| 2026-05-07 19:19 | 51.16539 | 0.22436 | 5822 ft | 267 kts | 90° |
| 2026-05-07 19:19 | 51.16553 | 0.25390 | 5807 ft | 267 kts | 90° |
| 2026-05-07 19:19 | 51.16566 | 0.28383 | 6394 ft | 271 kts | 90° |
| 2026-05-07 19:20 | 51.16576 | 0.31404 | 7193 ft | 275 kts | 90° |
| 2026-05-07 19:20 | 51.16582 | 0.34494 | 7918 ft | 282 kts | 90° |
| 2026-05-07 19:20 | 51.16587 | 0.37643 | 8674 ft | 287 kts | 91° |
| 2026-05-07 19:20 | 51.16587 | 0.40854 | 9425 ft | 292 kts | 91° |
| 2026-05-07 19:21 | 51.16587 | 0.44122 | 10126 ft | 298 kts | 91° |
| 2026-05-07 19:21 | 51.16588 | 0.47397 | 10819 ft | 301 kts | 91° |
| 2026-05-07 19:21 | 51.16589 | 0.50767 | 11374 ft | 312 kts | 91° |
| 2026-05-07 19:21 | 51.16576 | 0.54403 | 11570 ft | 334 kts | 92° |
| 2026-05-07 19:22 | 51.16525 | 0.58162 | 12096 ft | 343 kts | 93° |
| 2026-05-07 19:22 | 51.16451 | 0.61984 | 12802 ft | 347 kts | 93° |
| 2026-05-07 19:22 | 51.16370 | 0.65851 | 13506 ft | 351 kts | 93° |
| 2026-05-07 19:22 | 51.16289 | 0.69754 | 14147 ft | 354 kts | 93° |
| 2026-05-07 19:23 | 51.16210 | 0.73646 | 14748 ft | 358 kts | 93° |
| 2026-05-07 19:23 | 51.16128 | 0.77676 | 15357 ft | 361 kts | 93° |
| 2026-05-07 19:23 | 51.16047 | 0.81653 | 15958 ft | 365 kts | 93° |
| 2026-05-07 19:23 | 51.15965 | 0.85706 | 16563 ft | 369 kts | 93° |
| 2026-05-07 19:24 | 51.15881 | 0.89810 | 17157 ft | 372 kts | 93° |
| 2026-05-07 19:24 | 51.15795 | 0.93958 | 17784 ft | 376 kts | 93° |
| 2026-05-07 19:24 | 51.15706 | 0.98142 | 18345 ft | 380 kts | 93° |
| 2026-05-07 19:24 | 51.15616 | 1.02364 | 18833 ft | 383 kts | 93° |
| 2026-05-07 19:25 | 51.15522 | 1.06628 | 19325 ft | 386 kts | 93° |
| 2026-05-07 19:25 | 51.15424 | 1.10919 | 19818 ft | 389 kts | 93° |
| 2026-05-07 19:25 | 51.15324 | 1.15249 | 20313 ft | 392 kts | 93° |
| 2026-05-07 19:25 | 51.15220 | 1.19607 | 20798 ft | 395 kts | 93° |
| 2026-05-07 19:26 | 51.15114 | 1.24026 | 21276 ft | 398 kts | 93° |
| 2026-05-07 19:26 | 51.15010 | 1.28409 | 21731 ft | 401 kts | 93° |
| 2026-05-07 19:26 | 51.14905 | 1.32864 | 22191 ft | 404 kts | 93° |
| 2026-05-07 19:26 | 51.14798 | 1.37352 | 22643 ft | 407 kts | 93° |
| 2026-05-07 19:27 | 51.14691 | 1.41865 | 23097 ft | 410 kts | 93° |
| 2026-05-07 19:27 | 51.14580 | 1.46418 | 23524 ft | 413 kts | 93° |
| 2026-05-07 19:27 | 51.14463 | 1.51004 | 23903 ft | 416 kts | 93° |
| 2026-05-07 19:27 | 51.14339 | 1.55610 | 24268 ft | 418 kts | 93° |
| 2026-05-07 19:28 | 51.14211 | 1.60250 | 24640 ft | 420 kts | 93° |
| 2026-05-07 19:28 | 51.14083 | 1.64907 | 24992 ft | 423 kts | 93° |
| 2026-05-07 19:28 | 51.13955 | 1.69593 | 25348 ft | 425 kts | 93° |
| 2026-05-07 19:28 | 51.13825 | 1.74305 | 25700 ft | 427 kts | 93° |
| 2026-05-07 19:29 | 51.13696 | 1.79049 | 26046 ft | 429 kts | 94° |
| 2026-05-07 19:29 | 51.13564 | 1.83804 | 26386 ft | 432 kts | 94° |
| 2026-05-07 19:29 | 51.13427 | 1.88594 | 26724 ft | 434 kts | 94° |
| 2026-05-07 19:29 | 51.13252 | 1.93403 | 27029 ft | 436 kts | 98° |
| 2026-05-07 19:30 | 51.12658 | 1.98138 | 27335 ft | 437 kts | 108° |
| 2026-05-07 19:30 | 51.11600 | 2.02668 | 27652 ft | 437 kts | 116° |
| 2026-05-07 19:30 | 51.10230 | 2.06993 | 27971 ft | 438 kts | 121° |
| 2026-05-07 19:30 | 51.08740 | 2.11231 | 28288 ft | 440 kts | 121° |
| 2026-05-07 19:31 | 51.07252 | 2.15514 | 28626 ft | 443 kts | 120° |
| 2026-05-07 19:31 | 51.05837 | 2.19869 | 28932 ft | 446 kts | 118° |
| 2026-05-07 19:31 | 51.04499 | 2.24327 | 29233 ft | 448 kts | 116° |
| 2026-05-07 19:31 | 51.03220 | 2.28864 | 29543 ft | 451 kts | 115° |
| 2026-05-07 19:32 | 51.01972 | 2.33434 | 29842 ft | 453 kts | 115° |
| 2026-05-07 19:32 | 51.00718 | 2.38041 | 30119 ft | 455 kts | 115° |
| 2026-05-07 19:32 | 50.99445 | 2.42657 | 30356 ft | 457 kts | 116° |
| 2026-05-07 19:32 | 50.98148 | 2.47274 | 30591 ft | 459 kts | 116° |
| 2026-05-07 19:33 | 50.96831 | 2.51890 | 30824 ft | 461 kts | 116° |
| 2026-05-07 19:33 | 50.95494 | 2.56528 | 31079 ft | 462 kts | 116° |
| 2026-05-07 19:33 | 50.94159 | 2.61143 | 31414 ft | 461 kts | 116° |
| 2026-05-07 19:33 | 50.92834 | 2.65713 | 31731 ft | 460 kts | 116° |
| 2026-05-07 19:34 | 50.91502 | 2.70319 | 32062 ft | 459 kts | 116° |
| 2026-05-07 19:34 | 50.90176 | 2.74915 | 32384 ft | 459 kts | 116° |
| 2026-05-07 19:34 | 50.88848 | 2.79521 | 32704 ft | 458 kts | 116° |
| 2026-05-07 19:34 | 50.87528 | 2.84093 | 33010 ft | 458 kts | 116° |
| 2026-05-07 19:35 | 50.86200 | 2.88672 | 33315 ft | 457 kts | 116° |
| 2026-05-07 19:35 | 50.84868 | 2.93238 | 33643 ft | 457 kts | 117° |
| 2026-05-07 19:35 | 50.83534 | 2.97803 | 33944 ft | 456 kts | 117° |
| 2026-05-07 19:35 | 50.82202 | 3.02351 | 34248 ft | 455 kts | 117° |
| 2026-05-07 19:36 | 50.80874 | 3.06882 | 34505 ft | 455 kts | 117° |
| 2026-05-07 19:36 | 50.79541 | 3.11420 | 34740 ft | 455 kts | 117° |
| 2026-05-07 19:36 | 50.78210 | 3.15956 | 34970 ft | 454 kts | 117° |
| 2026-05-07 19:36 | 50.76881 | 3.20475 | 35201 ft | 454 kts | 117° |
| 2026-05-07 19:37 | 50.75562 | 3.24943 | 35409 ft | 454 kts | 117° |
| 2026-05-07 19:37 | 50.74209 | 3.29511 | 35617 ft | 454 kts | 117° |
| 2026-05-07 19:37 | 50.72871 | 3.34022 | 35820 ft | 454 kts | 117° |
| 2026-05-07 19:37 | 50.71531 | 3.38537 | 36026 ft | 454 kts | 117° |
| 2026-05-07 19:38 | 50.70195 | 3.43039 | 36243 ft | 454 kts | 117° |
| 2026-05-07 19:38 | 50.68872 | 3.47489 | 36417 ft | 454 kts | 117° |
| 2026-05-07 19:38 | 50.67530 | 3.51989 | 36617 ft | 453 kts | 117° |
| 2026-05-07 19:38 | 50.66187 | 3.56486 | 36802 ft | 453 kts | 117° |
| 2026-05-07 19:39 | 50.64846 | 3.60973 | 37002 ft | 453 kts | 117° |
| 2026-05-07 19:39 | 50.63499 | 3.65467 | 37078 ft | 453 kts | 117° |
| 2026-05-07 19:39 | 50.61245 | 3.72948 | 37073 ft | 456 kts | 117° |
| 2026-05-07 19:40 | 50.58057 | 3.83493 | 37074 ft | 457 kts | 117° |
| 2026-05-07 19:40 | 50.55321 | 3.92519 | 37083 ft | 457 kts | 117° |
| 2026-05-07 19:41 | 50.52583 | 4.01506 | 37083 ft | 457 kts | 117° |
| 2026-05-07 19:41 | 50.49828 | 4.10523 | 37090 ft | 457 kts | 117° |
| 2026-05-07 19:42 | 50.47073 | 4.19525 | 37093 ft | 457 kts | 117° |
| 2026-05-07 19:42 | 50.44305 | 4.28522 | 37093 ft | 457 kts | 118° |
| 2026-05-07 19:43 | 50.41535 | 4.37504 | 37095 ft | 457 kts | 118° |
| 2026-05-07 19:43 | 50.38759 | 4.46471 | 37094 ft | 457 kts | 118° |
| 2026-05-07 19:44 | 50.36440 | 4.53919 | 37096 ft | 457 kts | 118° |
| 2026-05-07 19:44 | 50.33649 | 4.62867 | 37098 ft | 458 kts | 118° |
| 2026-05-07 19:45 | 50.30851 | 4.71809 | 37086 ft | 458 kts | 118° |
| 2026-05-07 19:45 | 50.28046 | 4.80749 | 37086 ft | 458 kts | 118° |
| 2026-05-07 19:46 | 50.25227 | 4.89680 | 37093 ft | 458 kts | 118° |
| 2026-05-07 19:46 | 50.22405 | 4.98595 | 37095 ft | 458 kts | 118° |